TimeAEST,TemperatureF,Dew PointF,Humidity,Sea Level PressureIn,VisibilityMPH,Wind Direction,Wind SpeedMPH,Gust SpeedMPH,PrecipitationIn,Events,Conditions,WindDirDegrees,DateUTC
12:00 AM,76,74,91,29.80,,WNW,1.2,,,,Overcast,290,2013-11-16 14:00:00
12:00 AM,77.0,73.4,89,29.80,6.2,WNW,1.2,-,N/A,,Partly Cloudy,290,2013-11-16 14:00:00
12:30 AM,77.0,73.4,89,29.77,6.2,Calm,Calm,-,N/A,,Partly Cloudy,0,2013-11-16 14:30:00
1:00 AM,77,73,85,29.80,,SE,4.6,,,,,130,2013-11-16 15:00:00
1:00 AM,77.0,73.4,89,29.77,6.2,SE,4.6,-,N/A,,Partly Cloudy,130,2013-11-16 15:00:00
1:30 AM,77.0,73.4,89,29.77,6.2,SSE,4.6,-,N/A,,Partly Cloudy,160,2013-11-16 15:30:00
2:00 AM,77.0,73.4,89,29.77,6.2,Calm,Calm,-,N/A,,Partly Cloudy,0,2013-11-16 16:00:00
2:30 AM,77.0,73.4,89,29.77,6.2,West,3.5,-,N/A,,Scattered Clouds,270,2013-11-16 16:30:00
3:00 AM,78,72,77,29.77,,ESE,6.9,,,,,120,2013-11-16 17:00:00
3:00 AM,77.0,71.6,83,29.77,6.2,ESE,6.9,-,N/A,,Scattered Clouds,120,2013-11-16 17:00:00
3:30 AM,77.0,71.6,83,29.77,6.2,SE,5.8,-,N/A,,Scattered Clouds,130,2013-11-16 17:30:00
4:00 AM,77,72,81,29.77,,ESE,4.6,,,,,120,2013-11-16 18:00:00
4:00 AM,77.0,71.6,83,29.77,6.2,ESE,4.6,-,N/A,,Partly Cloudy,120,2013-11-16 18:00:00
4:30 AM,77.0,71.6,83,29.77,6.2,ESE,6.9,-,N/A,,Scattered Clouds,110,2013-11-16 18:30:00
5:00 AM,77.0,73.4,89,29.77,6.2,SSE,5.8,-,N/A,,Partly Cloudy,150,2013-11-16 19:00:00
5:30 AM,77.0,73.4,89,29.77,6.2,SE,4.6,-,N/A,,Partly Cloudy,140,2013-11-16 19:30:00
6:00 AM,77,72,81,29.79,19,SE,4.6,,,,Partly Cloudy,140,2013-11-16 20:00:00
6:00 AM,77.0,71.6,83,29.77,6.2,SE,4.6,-,N/A,,Partly Cloudy,140,2013-11-16 20:00:00
6:30 AM,77.0,73.4,89,29.80,6.2,SE,5.8,-,N/A,,Partly Cloudy,140,2013-11-16 20:30:00
7:00 AM,80,72,71,29.82,,SSE,5.8,,,,,150,2013-11-16 21:00:00
7:00 AM,80.6,71.6,74,29.80,6.2,SSE,5.8,-,N/A,,Partly Cloudy,150,2013-11-16 21:00:00
7:30 AM,80.6,71.6,74,29.80,6.2,SE,4.6,-,N/A,,Partly Cloudy,130,2013-11-16 21:30:00
8:00 AM,82.4,71.6,70,29.83,6.2,ESE,6.9,-,N/A,,Partly Cloudy,120,2013-11-16 22:00:00
8:30 AM,82.4,73.4,74,29.83,6.2,NE,6.9,-,N/A,,Partly Cloudy,50,2013-11-16 22:30:00
9:00 AM,83,72,61,29.84,19,ENE,8.1,,,,Partly Cloudy,60,2013-11-16 23:00:00
9:00 AM,82.4,71.6,70,29.83,6.2,ENE,8.1,-,N/A,,Partly Cloudy,60,2013-11-16 23:00:00
9:30 AM,84.2,71.6,66,29.83,6.2,NE,8.1,-,N/A,,Partly Cloudy,50,2013-11-16 23:30:00
10:00 AM,83,71,60,29.84,,NNE,9.2,,,,,30,2013-11-17 00:00:00
10:00 AM,82.4,71.6,70,29.83,6.2,NNE,9.2,-,N/A,,Partly Cloudy,30,2013-11-17 00:00:00
10:30 AM,84.2,71.6,66,29.80,6.2,NE,10.4,-,N/A,,Partly Cloudy,40,2013-11-17 00:30:00
11:00 AM,84.2,71.6,66,29.80,6.2,NNE,10.4,-,N/A,,Partly Cloudy,30,2013-11-17 01:00:00
11:30 AM,84.2,71.6,66,29.80,6.2,NE,10.4,-,N/A,,Partly Cloudy,40,2013-11-17 01:30:00
12:00 PM,84,72,58,29.81,19,NNE,12.7,,,,Partly Cloudy,20,2013-11-17 02:00:00
12:00 PM,84.2,71.6,66,29.80,6.2,NNE,12.7,-,N/A,,Partly Cloudy,20,2013-11-17 02:00:00
12:30 PM,84.2,71.6,66,29.80,6.2,NNE,10.4,-,N/A,,Partly Cloudy,20,2013-11-17 02:30:00
1:00 PM,85,72,56,29.79,,North,13.8,,,,,10,2013-11-17 03:00:00
1:00 PM,86.0,71.6,62,29.77,6.2,North,13.8,-,N/A,,Partly Cloudy,10,2013-11-17 03:00:00
1:30 PM,84.2,71.6,66,29.77,6.2,NNE,12.7,-,N/A,,Partly Cloudy,20,2013-11-17 03:30:00
2:00 PM,84.2,71.6,66,29.74,6.2,North,11.5,-,N/A,,Partly Cloudy,10,2013-11-17 04:00:00
2:30 PM,86.0,71.6,62,29.71,6.2,NNE,11.5,-,N/A,,Partly Cloudy,20,2013-11-17 04:30:00
3:00 PM,85,70,53,29.72,19,North,12.7,,,,Partly Cloudy,10,2013-11-17 05:00:00
3:00 PM,86.0,69.8,58,29.71,6.2,North,12.7,-,N/A,,Partly Cloudy,10,2013-11-17 05:00:00
3:30 PM,82.4,69.8,66,29.71,6.2,North,10.4,-,N/A,,Partly Cloudy,360,2013-11-17 05:30:00
4:00 PM,83,70,57,29.72,,North,10.4,,,,,0,2013-11-17 06:00:00
4:00 PM,84.2,69.8,62,29.71,6.2,North,10.4,-,N/A,,Partly Cloudy,360,2013-11-17 06:00:00
4:30 PM,82.4,68.0,62,29.71,6.2,North,11.5,-,N/A,,Mostly Cloudy,360,2013-11-17 06:30:00
5:00 PM,82.4,68.0,62,29.71,6.2,North,10.4,-,N/A,,Mostly Cloudy,350,2013-11-17 07:00:00
5:30 PM,80.6,69.8,70,29.71,6.2,North,10.4,-,N/A,,Mostly Cloudy,360,2013-11-17 07:30:00
6:00 PM,81,70,62,29.73,,North,10.4,,,,,0,2013-11-17 08:00:00
6:00 PM,80.6,69.8,70,29.71,6.2,North,10.4,-,N/A,,Mostly Cloudy,350,2013-11-17 08:00:00
6:30 PM,80.6,69.8,70,29.74,6.2,North,9.2,-,N/A,,Mostly Cloudy,360,2013-11-17 08:30:00
7:00 PM,80,71,66,29.76,,North,8.1,,,,,350,2013-11-17 09:00:00
7:00 PM,80.6,69.8,70,29.74,6.2,North,8.1,-,N/A,,Mostly Cloudy,350,2013-11-17 09:00:00
7:30 PM,80.6,69.8,70,29.77,6.2,North,8.1,-,N/A,,Mostly Cloudy,360,2013-11-17 09:30:00
8:00 PM,80.6,69.8,70,29.77,6.2,North,8.1,-,N/A,,Mostly Cloudy,10,2013-11-17 10:00:00
8:30 PM,80.6,71.6,74,29.80,6.2,ESE,5.8,-,N/A,,Mostly Cloudy,120,2013-11-17 10:30:00
9:00 PM,79,72,72,29.82,,ESE,8.1,,,,,120,2013-11-17 11:00:00
9:00 PM,78.8,71.6,78,29.80,6.2,ESE,8.1,-,N/A,,Mostly Cloudy,120,2013-11-17 11:00:00
10:00 PM,80,70,64,29.83,,East,4.6,,,,,90,2013-11-17 12:00:00
10:00 PM,80.6,69.8,70,29.83,6.2,East,4.6,-,N/A,,Mostly Cloudy,90,2013-11-17 12:00:00
10:30 PM,80.6,69.8,70,29.83,6.2,ENE,4.6,-,N/A,,Mostly Cloudy,70,2013-11-17 12:30:00
11:00 PM,78.8,71.6,78,29.83,6.2,Calm,Calm,-,N/A,Rain,Light Rain Showers,0,2013-11-17 13:00:00
11:30 PM,77.0,73.4,89,29.83,6.2,West,5.8,-,N/A,Rain,Light Rain Showers,280,2013-11-17 13:30:00